createdAt,value
2017-01-26T00:00:46.389Z,1022.65
2017-01-26T00:01:46.398Z,1022.67
2017-01-26T00:02:46.404Z,1022.68
2017-01-26T00:03:46.412Z,1022.65
2017-01-26T00:04:46.469Z,1022.64
2017-01-26T00:05:46.427Z,1022.63
2017-01-26T00:06:46.433Z,1022.63
2017-01-26T00:07:46.442Z,1022.62
2017-01-26T00:08:46.449Z,1022.6
2017-01-26T00:09:46.457Z,1022.57
2017-01-26T00:10:46.465Z,1022.57
2017-01-26T00:11:46.474Z,1022.55
2017-01-26T00:12:46.481Z,1022.57
2017-01-26T00:13:46.488Z,1022.57
2017-01-26T00:14:46.495Z,1022.55
2017-01-26T00:15:46.503Z,1022.54
2017-01-26T00:16:46.577Z,1022.51
2017-01-26T00:17:47.019Z,1022.49
2017-01-26T00:18:46.527Z,1022.49
2017-01-26T00:19:46.533Z,1022.53
2017-01-26T00:20:46.543Z,1022.49
2017-01-26T00:21:46.549Z,1022.45
2017-01-26T00:22:46.558Z,1022.48
2017-01-26T00:23:46.665Z,1022.47
2017-01-26T00:24:46.572Z,1022.46
2017-01-26T00:25:46.581Z,1022.43
2017-01-26T00:26:46.588Z,1022.43
2017-01-26T00:27:46.645Z,1022.42
2017-01-26T00:28:46.603Z,1022.4
2017-01-26T00:29:46.610Z,1022.4
2017-01-26T00:30:46.618Z,1022.4
2017-01-26T00:31:46.676Z,1022.4
2017-01-26T00:32:46.984Z,1022.36
2017-01-26T00:33:46.640Z,1022.37
2017-01-26T00:34:46.647Z,1022.36
2017-01-26T00:35:46.656Z,1022.33
2017-01-26T00:36:46.687Z,1022.32
2017-01-26T00:37:46.673Z,1022.32
2017-01-26T00:38:46.681Z,1022.34
2017-01-26T00:39:46.687Z,1022.3
2017-01-26T00:40:46.695Z,1022.28
2017-01-26T00:41:46.751Z,1022.29
2017-01-26T00:42:46.708Z,1022.25
2017-01-26T00:43:46.768Z,1022.27
2017-01-26T00:44:46.725Z,1022.27
2017-01-26T00:45:46.732Z,1022.23
2017-01-26T00:46:46.741Z,1022.18
2017-01-26T00:47:46.797Z,1022.2
2017-01-26T00:48:46.804Z,1022.19
2017-01-26T00:49:46.762Z,1022.2
2017-01-26T00:50:46.771Z,1022.19
2017-01-26T00:51:46.778Z,1022.23
2017-01-26T00:52:46.785Z,1022.24
2017-01-26T00:53:46.793Z,1022.24
2017-01-26T00:54:46.802Z,1022.19
2017-01-26T00:55:46.808Z,1022.18
2017-01-26T00:56:46.817Z,1022.21
2017-01-26T00:57:46.824Z,1022.18
2017-01-26T00:58:46.831Z,1022.18
2017-01-26T00:59:46.839Z,1022.17
2017-01-26T01:00:46.848Z,1022.2
2017-01-26T01:01:46.853Z,1022.22
2017-01-26T01:02:46.912Z,1022.17
2017-01-26T01:03:47.620Z,1022.19
2017-01-26T01:04:46.874Z,1022.17
2017-01-26T01:05:46.885Z,1022.17
2017-01-26T01:06:46.914Z,1022.17
2017-01-26T01:07:46.898Z,1022.15
2017-01-26T01:08:46.906Z,1022.16
2017-01-26T01:09:46.964Z,1022.12
2017-01-26T01:10:46.972Z,1022.09
2017-01-26T01:11:46.929Z,1022.09
2017-01-26T01:12:46.936Z,1022.07
2017-01-26T01:13:46.946Z,1022.08
2017-01-26T01:14:46.952Z,1022.04
2017-01-26T01:15:46.960Z,1022.02
2017-01-26T01:16:46.967Z,1022
2017-01-26T01:17:46.975Z,1021.98
2017-01-26T01:18:47.586Z,1022.01
2017-01-26T01:19:46.991Z,1021.98
2017-01-26T01:20:46.999Z,1021.98
2017-01-26T01:21:47.007Z,1022
2017-01-26T01:22:47.015Z,1021.97
2017-01-26T01:23:47.022Z,1021.99
2017-01-26T01:24:47.030Z,1021.95
2017-01-26T01:25:47.037Z,1021.98
2017-01-26T01:26:47.046Z,1021.97
2017-01-26T01:27:47.053Z,1021.99
2017-01-26T01:28:47.059Z,1022
2017-01-26T01:29:47.118Z,1022.03
2017-01-26T01:30:47.074Z,1022.02
2017-01-26T01:31:47.082Z,1022.02
2017-01-26T01:32:47.089Z,1022.03
2017-01-26T01:33:47.097Z,1022.02
2017-01-26T01:34:47.104Z,1021.98
2017-01-26T01:35:47.113Z,1021.95
2017-01-26T01:36:47.121Z,1021.96
2017-01-26T01:37:47.127Z,1021.9
2017-01-26T01:38:47.135Z,1021.9
2017-01-26T01:39:47.141Z,1021.92
2017-01-26T01:40:47.399Z,1021.89
2017-01-26T01:41:47.159Z,1021.84
2017-01-26T01:42:47.166Z,1021.84
2017-01-26T01:43:49.727Z,1021.83
2017-01-26T01:44:47.178Z,1021.85
2017-01-26T01:45:47.187Z,1021.82
2017-01-26T01:46:47.195Z,1021.81
2017-01-26T01:47:47.202Z,1021.79
2017-01-26T01:48:47.210Z,1021.76
2017-01-26T01:49:48.382Z,1021.78
2017-01-26T01:50:47.226Z,1021.72
2017-01-26T01:51:47.232Z,1021.71
2017-01-26T01:52:47.241Z,1021.65
2017-01-26T01:53:47.299Z,1021.62
2017-01-26T01:54:47.257Z,1021.65
2017-01-26T01:55:47.262Z,1021.67
2017-01-26T01:56:47.271Z,1021.65
2017-01-26T01:57:47.280Z,1021.66
2017-01-26T01:58:47.284Z,1021.6
2017-01-26T01:59:47.294Z,1021.64
2017-01-26T02:00:47.300Z,1021.62
2017-01-26T02:01:47.359Z,1021.61
2017-01-26T02:02:47.316Z,1021.63
2017-01-26T02:03:47.374Z,1021.64
2017-01-26T02:04:48.384Z,1021.63
2017-01-26T02:05:47.340Z,1021.58
2017-01-26T02:06:47.345Z,1021.55
2017-01-26T02:07:47.404Z,1021.55
2017-01-26T02:08:47.435Z,1021.6
2017-01-26T02:09:47.419Z,1021.57
2017-01-26T02:10:47.377Z,1021.56
2017-01-26T02:11:47.386Z,1021.52
2017-01-26T02:12:47.392Z,1021.53
2017-01-26T02:13:47.450Z,1021.53
2017-01-26T02:14:47.408Z,1021.54
2017-01-26T02:15:47.415Z,1021.49
2017-01-26T02:16:47.421Z,1021.47
2017-01-26T02:17:47.428Z,1021.5
2017-01-26T02:18:47.442Z,1021.53
2017-01-26T02:19:47.446Z,1021.48
2017-01-26T02:20:47.453Z,1021.53
2017-01-26T02:21:47.462Z,1021.49
2017-01-26T02:22:47.468Z,1021.51
2017-01-26T02:23:47.523Z,1021.49
2017-01-26T02:24:47.508Z,1021.5
2017-01-26T02:25:47.491Z,1021.5
2017-01-26T02:26:47.649Z,1021.47
2017-01-26T02:27:47.506Z,1021.47
2017-01-26T02:28:47.515Z,1021.44
2017-01-26T02:29:47.572Z,1021.45
2017-01-26T02:30:47.529Z,1021.47
2017-01-26T02:31:47.536Z,1021.42
2017-01-26T02:32:47.543Z,1021.46
2017-01-26T02:33:47.601Z,1021.41
2017-01-26T02:34:47.558Z,1021.41
2017-01-26T02:35:48.662Z,1021.36
2017-01-26T02:36:47.624Z,1021.36
2017-01-26T02:37:47.583Z,1021.37
2017-01-26T02:38:47.589Z,1021.37
2017-01-26T02:39:47.597Z,1021.34
2017-01-26T02:40:47.602Z,1021.28
2017-01-26T02:41:47.613Z,1021.29
2017-01-26T02:42:47.620Z,1021.3
2017-01-26T02:43:47.627Z,1021.32
2017-01-26T02:44:47.634Z,1021.31
2017-01-26T02:45:47.642Z,1021.3
2017-01-26T02:46:47.649Z,1021.29
2017-01-26T02:47:47.707Z,1021.27
2017-01-26T02:48:47.713Z,1021.25
2017-01-26T02:49:47.720Z,1021.28
2017-01-26T02:50:48.631Z,1021.27
2017-01-26T02:51:47.686Z,1021.26
2017-01-26T02:52:47.695Z,1021.25
2017-01-26T02:53:47.755Z,1021.24
2017-01-26T02:54:47.713Z,1021.2
2017-01-26T02:55:47.717Z,1021.22
2017-01-26T02:56:47.735Z,1021.21
2017-01-26T02:57:47.733Z,1021.25
2017-01-26T02:58:47.742Z,1021.22
2017-01-26T02:59:47.749Z,1021.28
2017-01-26T03:00:47.756Z,1021.29
2017-01-26T03:01:47.761Z,1021.28
2017-01-26T03:02:47.770Z,1021.33
2017-01-26T03:03:47.777Z,1021.31
2017-01-26T03:04:47.786Z,1021.28
2017-01-26T03:05:47.796Z,1021.31
2017-01-26T03:06:47.804Z,1021.31
2017-01-26T03:07:47.808Z,1021.29
2017-01-26T03:08:47.816Z,1021.28
2017-01-26T03:09:47.824Z,1021.23
2017-01-26T03:10:47.832Z,1021.26
2017-01-26T03:11:47.889Z,1021.22
2017-01-26T03:12:48.596Z,1021.21
2017-01-26T03:13:47.852Z,1021.22
2017-01-26T03:14:48.161Z,1021.2
2017-01-26T03:15:47.869Z,1021.24
2017-01-26T03:16:47.927Z,1021.24
2017-01-26T03:17:47.885Z,1021.23
2017-01-26T03:18:47.892Z,1021.24
2017-01-26T03:19:47.899Z,1021.18
2017-01-26T03:20:47.907Z,1021.19
2017-01-26T03:21:47.915Z,1021.19
2017-01-26T03:22:47.924Z,1021.16
2017-01-26T03:23:47.928Z,1021.15
2017-01-26T03:24:47.936Z,1021.17
2017-01-26T03:25:47.944Z,1021.14
2017-01-26T03:26:47.950Z,1021.12
2017-01-26T03:27:47.958Z,1021.12
2017-01-26T03:28:47.967Z,1021.11
2017-01-26T03:29:47.973Z,1021.1
2017-01-26T03:30:47.981Z,1021.11
2017-01-26T03:31:47.989Z,1021.12
2017-01-26T03:32:47.996Z,1021.09
2017-01-26T03:33:48.005Z,1021.1
2017-01-26T03:34:48.362Z,1021.11
2017-01-26T03:35:48.023Z,1021.1
2017-01-26T03:36:48.025Z,1021.06
2017-01-26T03:37:48.034Z,1021.1
2017-01-26T03:38:48.040Z,1021.08
2017-01-26T03:39:48.048Z,1021.08
2017-01-26T03:40:48.078Z,1021.07
2017-01-26T03:41:48.063Z,1021.07
2017-01-26T03:42:48.120Z,1021.07
2017-01-26T03:43:48.130Z,1021.08
2017-01-26T03:44:48.086Z,1021.08
2017-01-26T03:45:48.092Z,1021.09
2017-01-26T03:46:48.101Z,1021.1
2017-01-26T03:47:48.109Z,1021.13
2017-01-26T03:48:48.168Z,1021.07
2017-01-26T03:49:48.122Z,1021.09
2017-01-26T03:50:48.132Z,1021.09
2017-01-26T03:51:48.138Z,1021.05
2017-01-26T03:52:48.146Z,1021.04
2017-01-26T03:53:48.154Z,1021.06
2017-01-26T03:54:48.162Z,1021.04
2017-01-26T03:55:48.168Z,1021.03
2017-01-26T03:56:48.224Z,1021.07
2017-01-26T03:57:48.183Z,1021.03
2017-01-26T03:58:49.291Z,1021.02
2017-01-26T03:59:48.198Z,1021.02
2017-01-26T04:00:48.209Z,1020.99
2017-01-26T04:01:48.214Z,1020.99
2017-01-26T04:02:48.220Z,1021.01
2017-01-26T04:03:48.277Z,1020.98
2017-01-26T04:04:48.236Z,1020.98
2017-01-26T04:05:48.245Z,1020.96
2017-01-26T04:06:48.251Z,1020.97
2017-01-26T04:07:48.258Z,1020.95
2017-01-26T04:08:48.266Z,1020.98
2017-01-26T04:09:48.273Z,1020.97
2017-01-26T04:10:48.281Z,1020.95
2017-01-26T04:11:48.312Z,1020.97
2017-01-26T04:12:48.295Z,1020.97
2017-01-26T04:14:48.309Z,1020.93
2017-01-26T04:15:48.368Z,1020.92
2017-01-26T04:16:48.326Z,1020.94
2017-01-26T04:17:48.332Z,1020.9
2017-01-26T04:18:48.341Z,1020.95
2017-01-26T04:19:48.350Z,1020.91
2017-01-26T04:20:49.256Z,1020.96
2017-01-26T04:21:48.363Z,1020.95
2017-01-26T04:22:48.372Z,1020.95
2017-01-26T04:23:48.379Z,1020.95
2017-01-26T04:24:48.383Z,1020.91
2017-01-26T04:25:48.398Z,1020.93
2017-01-26T04:26:48.400Z,1020.93
2017-01-26T04:27:48.409Z,1020.9
2017-01-26T04:28:48.417Z,1020.92
2017-01-26T04:29:48.422Z,1020.89
2017-01-26T04:30:48.431Z,1020.92
2017-01-26T04:31:48.440Z,1020.88
2017-01-26T04:32:48.499Z,1020.87
2017-01-26T04:33:48.455Z,1020.84
2017-01-26T04:34:48.461Z,1020.86
2017-01-26T04:35:48.469Z,1020.84
2017-01-26T04:36:48.476Z,1020.79
2017-01-26T04:37:48.485Z,1020.79
2017-01-26T04:38:48.543Z,1020.76
2017-01-26T04:39:48.549Z,1020.77
2017-01-26T04:40:48.507Z,1020.79
2017-01-26T04:41:48.514Z,1020.78
2017-01-26T04:42:48.671Z,1020.73
2017-01-26T04:43:48.530Z,1020.7
2017-01-26T04:44:48.537Z,1020.71
2017-01-26T04:45:48.546Z,1020.73
2017-01-26T04:46:48.552Z,1020.71
2017-01-26T04:47:48.561Z,1020.73
2017-01-26T04:48:48.568Z,1020.7
2017-01-26T04:49:48.575Z,1020.68
2017-01-26T04:50:48.633Z,1020.64
2017-01-26T04:51:48.589Z,1020.66
2017-01-26T04:52:48.598Z,1020.67
2017-01-26T04:53:48.605Z,1020.65
2017-01-26T04:54:48.613Z,1020.65
2017-01-26T04:55:48.670Z,1020.61
2017-01-26T04:56:48.629Z,1020.62
2017-01-26T04:57:48.635Z,1020.62
2017-01-26T04:58:48.642Z,1020.6
2017-01-26T04:59:48.651Z,1020.61
2017-01-26T05:00:48.657Z,1020.64
2017-01-26T05:01:48.665Z,1020.64
2017-01-26T05:02:48.672Z,1020.69
2017-01-26T05:03:48.731Z,1020.68
2017-01-26T05:04:48.687Z,1020.7
2017-01-26T05:05:48.695Z,1020.7
2017-01-26T05:06:49.404Z,1020.69
2017-01-26T05:07:48.711Z,1020.7
2017-01-26T05:08:48.718Z,1020.66
2017-01-26T05:09:48.726Z,1020.65
2017-01-26T05:10:48.734Z,1020.61
2017-01-26T05:11:48.741Z,1020.61
2017-01-26T05:12:48.750Z,1020.61
2017-01-26T05:14:48.765Z,1020.51
2017-01-26T05:15:48.770Z,1020.49
2017-01-26T05:16:48.778Z,1020.51
2017-01-26T05:17:48.787Z,1020.47
2017-01-26T05:18:48.794Z,1020.45
2017-01-26T05:19:48.801Z,1020.44
2017-01-26T05:20:48.813Z,1020.46
2017-01-26T05:21:48.815Z,1020.48
2017-01-26T05:22:48.824Z,1020.45
2017-01-26T05:23:48.882Z,1020.47
2017-01-26T05:24:48.839Z,1020.47
2017-01-26T05:25:48.847Z,1020.45
2017-01-26T05:26:48.853Z,1020.43
2017-01-26T05:27:48.862Z,1020.44
2017-01-26T05:28:48.870Z,1020.46
2017-01-26T05:29:48.879Z,1020.44
2017-01-26T05:30:49.993Z,1020.43
2017-01-26T05:31:48.891Z,1020.4
2017-01-26T05:32:48.901Z,1020.42
2017-01-26T05:33:48.957Z,1020.41
2017-01-26T05:34:48.965Z,1020.44
2017-01-26T05:35:48.922Z,1020.39
2017-01-26T05:36:48.930Z,1020.42
2017-01-26T05:37:48.939Z,1020.37
2017-01-26T05:38:48.995Z,1020.32
2017-01-26T05:39:48.952Z,1020.29
2017-01-26T05:40:48.961Z,1020.27
2017-01-26T05:41:48.968Z,1020.27
2017-01-26T05:42:48.976Z,1020.23
2017-01-26T05:43:48.984Z,1020.23
2017-01-26T05:44:48.989Z,1020.27
2017-01-26T05:45:48.998Z,1020.26
2017-01-26T05:46:49.006Z,1020.25
2017-01-26T05:47:49.013Z,1020.22
2017-01-26T05:48:49.020Z,1020.24
2017-01-26T05:49:49.029Z,1020.26
2017-01-26T05:50:49.036Z,1020.25
2017-01-26T05:51:49.045Z,1020.22
2017-01-26T05:52:49.402Z,1020.2
2017-01-26T05:53:49.059Z,1020.18
2017-01-26T05:54:49.117Z,1020.19
2017-01-26T05:55:49.125Z,1020.19
2017-01-26T05:56:49.082Z,1020.18
2017-01-26T05:57:49.089Z,1020.19
2017-01-26T05:58:49.147Z,1020.22
2017-01-26T05:59:49.103Z,1020.23
2017-01-26T06:00:49.111Z,1020.2
2017-01-26T06:01:49.168Z,1020.2
2017-01-26T06:02:49.128Z,1020.22
2017-01-26T06:03:49.135Z,1020.22
2017-01-26T06:04:49.142Z,1020.18
2017-01-26T06:05:49.150Z,1020.16
2017-01-26T06:06:49.157Z,1020.19
2017-01-26T06:07:49.167Z,1020.17
2017-01-26T06:08:49.173Z,1020.2
2017-01-26T06:09:49.182Z,1020.13
2017-01-26T06:10:49.188Z,1020.13
2017-01-26T06:11:49.195Z,1020.14
2017-01-26T06:12:49.203Z,1020.15
2017-01-26T06:13:49.260Z,1020.17
2017-01-26T06:14:49.219Z,1020.18
2017-01-26T06:15:49.226Z,1020.2
2017-01-26T06:16:49.234Z,1020.18
2017-01-26T06:17:49.338Z,1020.15
2017-01-26T06:18:49.249Z,1020.15
2017-01-26T06:19:49.257Z,1020.14
2017-01-26T06:20:49.264Z,1020.2
2017-01-26T06:21:49.271Z,1020.16
2017-01-26T06:22:49.280Z,1020.14
2017-01-26T06:23:49.286Z,1020.14
2017-01-26T06:24:49.294Z,1020.16
2017-01-26T06:25:49.352Z,1020.16
2017-01-26T06:26:49.362Z,1020.15
2017-01-26T06:27:49.365Z,1020.16
2017-01-26T06:28:49.322Z,1020.14
2017-01-26T06:29:49.330Z,1020.15
2017-01-26T06:30:49.340Z,1020.12
2017-01-26T06:31:49.347Z,1020.08
2017-01-26T06:32:49.352Z,1020.04
2017-01-26T06:33:49.362Z,1020.03
2017-01-26T06:34:49.371Z,1020.08
2017-01-26T06:35:49.425Z,1020.07
2017-01-26T06:36:49.383Z,1020.07
2017-01-26T06:37:49.392Z,1020.06
2017-01-26T06:38:50.300Z,1020.06
2017-01-26T06:39:49.407Z,1020.05
2017-01-26T06:40:49.415Z,1020.04
2017-01-26T06:41:49.426Z,1020.05
2017-01-26T06:42:49.428Z,1020.04
2017-01-26T06:43:49.487Z,1020.11
2017-01-26T06:44:49.445Z,1020.06
2017-01-26T06:45:49.451Z,1020.06
2017-01-26T06:46:49.466Z,1020.05
2017-01-26T06:47:49.468Z,1020.05
2017-01-26T06:48:49.475Z,1020.11
2017-01-26T06:49:49.484Z,1020.12
2017-01-26T06:50:49.488Z,1020.09
2017-01-26T06:51:49.548Z,1020.12
2017-01-26T06:52:49.504Z,1020.11
2017-01-26T06:53:49.563Z,1020.1
2017-01-26T06:54:49.522Z,1020.1
2017-01-26T06:55:49.528Z,1020.13
2017-01-26T06:56:49.538Z,1020.16
2017-01-26T06:57:49.592Z,1020.11
2017-01-26T06:58:49.549Z,1020.11
2017-01-26T06:59:49.559Z,1020.12
2017-01-26T07:00:49.815Z,1020.09
2017-01-26T07:01:49.622Z,1020.08
2017-01-26T07:02:49.581Z,1020.03
2017-01-26T07:03:49.588Z,1020.08
2017-01-26T07:04:49.597Z,1020.01
2017-01-26T07:05:49.604Z,1020.07
2017-01-26T07:06:49.610Z,1020.06
2017-01-26T07:07:49.620Z,1020.05
2017-01-26T07:08:49.676Z,1020.07
2017-01-26T07:09:49.634Z,1020.1
2017-01-26T07:10:49.640Z,1020.07
2017-01-26T07:11:49.698Z,1020.04
2017-01-26T07:12:49.705Z,1020.04
2017-01-26T07:13:49.663Z,1020.01
2017-01-26T07:14:49.670Z,1020.09
2017-01-26T07:15:49.678Z,1020.09
2017-01-26T07:16:49.736Z,1020.09
2017-01-26T07:17:49.744Z,1020.07
2017-01-26T07:18:49.702Z,1020.03
2017-01-26T07:19:49.710Z,1020.08
2017-01-26T07:20:49.717Z,1020.08
2017-01-26T07:21:49.724Z,1020.07
2017-01-26T07:22:49.730Z,1020.03
2017-01-26T07:23:49.739Z,1020.1
2017-01-26T07:24:50.748Z,1020.1
2017-01-26T07:25:49.754Z,1020.1
2017-01-26T07:26:49.764Z,1020.08
2017-01-26T07:27:49.770Z,1020.08
2017-01-26T07:28:49.778Z,1020.06
2017-01-26T07:29:49.785Z,1020.08
2017-01-26T07:30:49.791Z,1020.15
2017-01-26T07:31:49.801Z,1020.14
2017-01-26T07:32:49.807Z,1020.17
2017-01-26T07:33:49.815Z,1020.16
2017-01-26T07:34:49.822Z,1020.21
2017-01-26T07:35:49.830Z,1020.17
2017-01-26T07:36:49.837Z,1020.19
2017-01-26T07:37:49.897Z,1020.2
2017-01-26T07:38:49.905Z,1020.17
2017-01-26T07:39:49.861Z,1020.2
2017-01-26T07:40:49.868Z,1020.22
2017-01-26T07:41:49.873Z,1020.22
2017-01-26T07:42:49.933Z,1020.19
2017-01-26T07:43:49.891Z,1020.23
2017-01-26T07:44:49.899Z,1020.25
2017-01-26T07:45:49.905Z,1020.21
2017-01-26T07:46:50.363Z,1020.21
2017-01-26T07:47:49.922Z,1020.22
2017-01-26T07:48:49.934Z,1020.23
2017-01-26T07:49:49.989Z,1020.25
2017-01-26T07:50:49.946Z,1020.23
2017-01-26T07:51:49.954Z,1020.28
2017-01-26T07:52:49.961Z,1020.25
2017-01-26T07:53:49.970Z,1020.23
2017-01-26T07:54:49.982Z,1020.26
2017-01-26T07:55:49.987Z,1020.27
2017-01-26T07:56:49.996Z,1020.31
2017-01-26T07:57:50.002Z,1020.3
2017-01-26T07:58:50.012Z,1020.3
2017-01-26T07:59:50.019Z,1020.27
2017-01-26T08:00:50.027Z,1020.24
2017-01-26T08:01:50.035Z,1020.3
2017-01-26T08:02:50.045Z,1020.3
2017-01-26T08:03:50.052Z,1020.23
2017-01-26T08:04:50.110Z,1020.24
2017-01-26T08:05:50.069Z,1020.2
2017-01-26T08:06:50.079Z,1020.17
2017-01-26T08:07:50.437Z,1020.21
2017-01-26T08:08:50.094Z,1020.16
2017-01-26T08:09:50.105Z,1020.16
2017-01-26T08:10:51.262Z,1020.21
2017-01-26T08:11:50.168Z,1020.23
2017-01-26T08:12:50.127Z,1020.2
2017-01-26T08:13:50.135Z,1020.21
2017-01-26T08:14:50.193Z,1020.22
2017-01-26T08:15:50.154Z,1020.21
2017-01-26T08:16:50.166Z,1020.21
2017-01-26T08:17:50.170Z,1020.17
2017-01-26T08:18:50.178Z,1020.16
2017-01-26T08:19:50.236Z,1020.11
2017-01-26T08:20:50.195Z,1020.12
2017-01-26T08:21:50.252Z,1020.17
2017-01-26T08:22:50.209Z,1020.14
2017-01-26T08:23:50.220Z,1020.14
2017-01-26T08:24:50.228Z,1020.17
2017-01-26T08:25:50.287Z,1020.1
2017-01-26T08:26:50.244Z,1020.12
2017-01-26T08:27:50.253Z,1020.13
2017-01-26T08:28:50.263Z,1020.11
2017-01-26T08:29:50.269Z,1020.11
2017-01-26T08:30:50.277Z,1020.11
2017-01-26T08:31:50.286Z,1020.09
2017-01-26T08:32:50.845Z,1020.09
2017-01-26T08:33:50.353Z,1020.05
2017-01-26T08:34:50.312Z,1020.05
2017-01-26T08:35:50.319Z,1020.07
2017-01-26T08:36:50.377Z,1020.08
2017-01-26T08:37:50.337Z,1020.07
2017-01-26T08:38:50.343Z,1020.05
2017-01-26T08:39:50.353Z,1020.03
2017-01-26T08:40:50.360Z,1020.02
2017-01-26T08:41:50.418Z,1020.06
2017-01-26T08:42:50.378Z,1020.04
2017-01-26T08:43:50.383Z,1020.02
2017-01-26T08:44:50.391Z,1020.06
2017-01-26T08:45:50.401Z,1020.09
2017-01-26T08:46:50.408Z,1020.08
2017-01-26T08:47:50.415Z,1020.05
2017-01-26T08:48:50.425Z,1020.03
2017-01-26T08:49:50.438Z,1020.06
2017-01-26T08:50:50.441Z,1020.04
2017-01-26T08:51:50.450Z,1020.09
2017-01-26T08:52:50.457Z,1020.21
2017-01-26T08:53:50.467Z,1020.23
2017-01-26T08:54:50.574Z,1020.28
2017-01-26T08:55:50.483Z,1020.27
2017-01-26T08:56:50.493Z,1020.29
2017-01-26T08:57:50.552Z,1020.31
2017-01-26T08:58:50.511Z,1020.25
2017-01-26T08:59:50.522Z,1020.28
2017-01-26T09:00:50.531Z,1020.24
2017-01-26T09:01:50.544Z,1020.21
2017-01-26T09:02:50.550Z,1020.21
2017-01-26T09:03:50.562Z,1020.23
2017-01-26T09:04:50.573Z,1020.17
2017-01-26T09:05:50.587Z,1020.16
2017-01-26T09:06:50.647Z,1020.18
2017-01-26T09:07:50.607Z,1020.19
2017-01-26T09:08:50.620Z,1020.19
2017-01-26T09:09:50.629Z,1020.23
2017-01-26T09:10:50.641Z,1020.21
2017-01-26T09:11:50.654Z,1020.2
2017-01-26T09:12:50.716Z,1020.21
2017-01-26T09:13:50.678Z,1020.2
2017-01-26T09:14:50.690Z,1020.18
2017-01-26T09:15:50.701Z,1020.21
2017-01-26T09:16:50.711Z,1020.21
2017-01-26T09:17:50.725Z,1020.26
2017-01-26T09:18:51.590Z,1020.29
2017-01-26T09:19:50.748Z,1020.3
2017-01-26T09:20:50.760Z,1020.25
2017-01-26T09:21:50.771Z,1020.28
2017-01-26T09:22:50.783Z,1020.27
2017-01-26T09:23:50.846Z,1020.28
2017-01-26T09:24:50.808Z,1020.28
2017-01-26T09:25:50.819Z,1020.29
2017-01-26T09:26:50.833Z,1020.28
2017-01-26T09:27:50.842Z,1020.28
2017-01-26T09:28:50.854Z,1020.31
2017-01-26T09:29:50.868Z,1020.34
2017-01-26T09:30:50.878Z,1020.32
2017-01-26T09:31:50.891Z,1020.32
2017-01-26T09:32:50.902Z,1020.29
2017-01-26T09:33:50.915Z,1020.28
2017-01-26T09:34:50.927Z,1020.29
2017-01-26T09:35:50.939Z,1020.26
2017-01-26T09:36:51.001Z,1020.23
2017-01-26T09:37:50.963Z,1020.23
2017-01-26T09:38:50.974Z,1020.2
2017-01-26T09:39:50.984Z,1020.2
2017-01-26T09:40:51.247Z,1020.2
2017-01-26T09:41:51.061Z,1020.2
2017-01-26T09:42:51.019Z,1020.17
2017-01-26T09:43:51.030Z,1020.19
2017-01-26T09:44:51.091Z,1020.2
2017-01-26T09:45:51.051Z,1020.17
2017-01-26T09:46:51.061Z,1020.16
2017-01-26T09:47:51.072Z,1020.18
2017-01-26T09:48:51.083Z,1020.17
2017-01-26T09:49:51.092Z,1020.15
2017-01-26T09:50:51.102Z,1020.13
2017-01-26T09:51:51.164Z,1020.12
2017-01-26T09:52:51.126Z,1020.09
2017-01-26T09:53:51.133Z,1020.07
2017-01-26T09:54:51.192Z,1020.1
2017-01-26T09:55:51.151Z,1020.12
2017-01-26T09:56:51.161Z,1020.12
2017-01-26T09:57:51.221Z,1020.14
2017-01-26T09:58:51.180Z,1020.12
2017-01-26T09:59:51.241Z,1020.11
2017-01-26T10:00:51.198Z,1020.09
2017-01-26T10:01:51.207Z,1020.09
2017-01-26T10:02:51.239Z,1020.11
2017-01-26T10:03:51.250Z,1020.16
2017-01-26T10:04:52.037Z,1020.14
2017-01-26T10:05:51.243Z,1020.07
2017-01-26T10:06:51.252Z,1019.98
2017-01-26T10:07:51.260Z,1020.02
2017-01-26T10:08:51.320Z,1019.99
2017-01-26T10:09:51.328Z,1020
2017-01-26T10:10:51.337Z,1019.99
2017-01-26T10:11:51.296Z,1019.97
2017-01-26T10:12:51.304Z,1019.94
2017-01-26T10:13:51.313Z,1019.96
2017-01-26T10:14:51.324Z,1019.94
2017-01-26T10:15:51.379Z,1019.89
2017-01-26T10:16:51.339Z,1019.85
2017-01-26T10:17:51.349Z,1019.87
2017-01-26T10:18:51.357Z,1019.86
2017-01-26T10:19:51.415Z,1019.83
2017-01-26T10:20:51.374Z,1019.8
2017-01-26T10:21:51.383Z,1019.78
2017-01-26T10:22:51.443Z,1019.73
2017-01-26T10:23:51.401Z,1019.73
2017-01-26T10:24:51.410Z,1019.73
2017-01-26T10:25:51.419Z,1019.74
2017-01-26T10:26:51.575Z,1019.7
2017-01-26T10:27:51.435Z,1019.71
2017-01-26T10:28:51.445Z,1019.69
2017-01-26T10:29:51.451Z,1019.69
2017-01-26T10:30:51.461Z,1019.67
2017-01-26T10:31:51.469Z,1019.61
2017-01-26T10:32:51.480Z,1019.57
2017-01-26T10:33:51.487Z,1019.55
2017-01-26T10:34:51.494Z,1019.52
2017-01-26T10:35:51.502Z,1019.55
2017-01-26T10:36:51.512Z,1019.49
2017-01-26T10:37:51.521Z,1019.44
2017-01-26T10:38:51.530Z,1019.43
2017-01-26T10:39:51.538Z,1019.43
2017-01-26T10:40:51.544Z,1019.42
2017-01-26T10:41:51.856Z,1019.42
2017-01-26T10:42:51.565Z,1019.38
2017-01-26T10:43:51.574Z,1019.4
2017-01-26T10:44:51.632Z,1019.4
2017-01-26T10:45:51.639Z,1019.36
2017-01-26T10:46:51.598Z,1019.35
2017-01-26T10:47:51.605Z,1019.38
2017-01-26T10:48:51.622Z,1019.36
2017-01-26T10:49:51.623Z,1019.37
2017-01-26T10:50:51.642Z,1019.34
2017-01-26T10:51:51.695Z,1019.3
2017-01-26T10:52:51.651Z,1019.28
2017-01-26T10:53:51.659Z,1019.29
2017-01-26T10:54:51.668Z,1019.28
2017-01-26T10:55:51.675Z,1019.26
2017-01-26T10:56:51.684Z,1019.22
2017-01-26T10:57:51.694Z,1019.2
2017-01-26T10:58:51.777Z,1019.21
2017-01-26T10:59:51.710Z,1019.15
2017-01-26T11:00:51.719Z,1019.16
2017-01-26T11:01:51.726Z,1019.14
2017-01-26T11:02:51.735Z,1019.16
2017-01-26T11:03:51.743Z,1019.15
2017-01-26T11:04:51.753Z,1019.13
2017-01-26T11:05:51.761Z,1019.12
2017-01-26T11:06:51.769Z,1019.09
2017-01-26T11:07:51.778Z,1019.12
2017-01-26T11:08:51.786Z,1019.07
2017-01-26T11:09:51.794Z,1019.04
2017-01-26T11:10:51.808Z,1019.02
2017-01-26T11:11:51.811Z,1019.03
2017-01-26T11:12:52.520Z,1018.97
2017-01-26T11:13:51.826Z,1018.97
2017-01-26T11:14:51.836Z,1018.93
2017-01-26T11:15:51.846Z,1018.92
2017-01-26T11:16:51.854Z,1018.93
2017-01-26T11:17:51.861Z,1018.93
2017-01-26T11:18:51.870Z,1018.9
2017-01-26T11:19:51.876Z,1018.91
2017-01-26T11:20:51.935Z,1018.88
2017-01-26T11:21:51.893Z,1018.86
2017-01-26T11:22:51.901Z,1018.83
2017-01-26T11:23:51.910Z,1018.84
2017-01-26T11:24:51.969Z,1018.82
2017-01-26T11:25:51.928Z,1018.85
2017-01-26T11:26:51.936Z,1018.8
2017-01-26T11:27:52.443Z,1018.82
2017-01-26T11:28:51.949Z,1018.83
2017-01-26T11:29:51.960Z,1018.82
2017-01-26T11:30:51.968Z,1018.76
2017-01-26T11:31:52.026Z,1018.78
2017-01-26T11:32:52.035Z,1018.8
2017-01-26T11:33:51.994Z,1018.79
2017-01-26T11:34:52.001Z,1018.82
2017-01-26T11:35:52.011Z,1018.79
2017-01-26T11:36:52.018Z,1018.78
2017-01-26T11:37:52.078Z,1018.73
2017-01-26T11:38:52.167Z,1018.72
2017-01-26T11:39:52.177Z,1018.7
2017-01-26T11:40:52.184Z,1018.68
2017-01-26T11:41:52.192Z,1018.67
2017-01-26T11:42:52.250Z,1018.68
2017-01-26T11:44:52.217Z,1018.66
2017-01-26T11:45:52.224Z,1018.66
2017-01-26T11:46:52.283Z,1018.67
2017-01-26T11:47:52.240Z,1018.66
2017-01-26T11:48:52.249Z,1018.65
2017-01-26T11:49:52.257Z,1018.6
2017-01-26T11:50:52.265Z,1018.61
2017-01-26T11:51:52.275Z,1018.55
2017-01-26T11:52:52.284Z,1018.55
2017-01-26T11:53:52.290Z,1018.54
2017-01-26T11:54:52.348Z,1018.51
2017-01-26T11:55:52.308Z,1018.55
2017-01-26T11:56:52.316Z,1018.51
2017-01-26T11:57:52.323Z,1018.55
2017-01-26T11:58:53.084Z,1018.42
2017-01-26T11:59:52.391Z,1018.41
2017-01-26T12:00:52.347Z,1018.4
2017-01-26T12:01:52.380Z,1018.35
2017-01-26T12:02:52.364Z,1018.34
2017-01-26T12:03:52.377Z,1018.36
2017-01-26T12:04:52.381Z,1018.31
2017-01-26T12:05:52.439Z,1018.32
2017-01-26T12:06:52.405Z,1018.3
2017-01-26T12:07:52.408Z,1018.3
2017-01-26T12:08:52.416Z,1018.26
2017-01-26T12:09:52.423Z,1018.29
2017-01-26T12:10:52.432Z,1018.28
2017-01-26T12:11:52.468Z,1018.26